»·PEaware :: PAA576 KPSP-KSFO

PAA576 :: KPSP-KSFO

FLIGHT INFORMATION

Flight Status: Arrived
Operator:
PanAm
More flights by this operator :: More flights under this callsign
Pilot: Anonymous 8274 (8274)
Aircraft: BOEING 737-200
(B732)
More flights by this aircraft type
Origin: KPSP Palm Springs Intl
United States
Destination: KSFO San Francisco Intl
United States
More flights between these airports :: More routes between these airports
Route: CATH1 PSP V388 PDZ J60 LAX J1 AVE J6 ROBIE BSR BSR3
File this flight plan on PilotEdge
Remarks: Southerly routing toward LAX intentional
Altitude:
(Current/Filed)
28,000ft
Speed:
(Current/Filed)
460kts
Departed: 28-Apr-18 01:36 PM
Arrived: 28-Apr-18 03:04 PM
Distance/Time
Traveled:
366nm/1:28
Distance/Time
To Go:
Arrived

Flight Plot

Page will automatically refresh every two minutes.

Flight plan parsing failed; only flown route is shown


Map Options




Map Legend


Flown Route
Filed Route
Departure Airport
Arrival Airport
Navaid (VOR, NDB)
Fix

Horizontal Profiles

Position Reports

Time Latitude Longitude Heading Altitude Ground
Speed
28-Apr-18 13:03 33.823704 -116.506198 225 486ft 0kts
28-Apr-18 13:04 33.823704 -116.506198 225 486ft 0kts
28-Apr-18 13:05 33.823704 -116.506198 225 486ft 0kts
28-Apr-18 13:06 33.823704 -116.506198 225 486ft 0kts
28-Apr-18 13:07 33.823704 -116.506198 225 486ft 0kts
28-Apr-18 13:08 33.823704 -116.506198 225 486ft 0kts
28-Apr-18 13:09 33.823704 -116.506198 225 486ft 0kts
28-Apr-18 13:10 33.823704 -116.506198 225 486ft 0kts
28-Apr-18 13:11 33.823704 -116.506198 225 486ft 0kts
28-Apr-18 13:12 33.823704 -116.506198 225 486ft 0kts
28-Apr-18 13:13 33.823704 -116.506198 225 486ft 0kts
28-Apr-18 13:14 33.823704 -116.506198 225 486ft 0kts
28-Apr-18 13:15 33.823704 -116.506198 225 486ft 0kts
28-Apr-18 13:16 33.823704 -116.506198 225 486ft 0kts
28-Apr-18 13:17 33.823704 -116.506198 225 486ft 0kts
28-Apr-18 13:18 33.823704 -116.506198 225 486ft 0kts
28-Apr-18 13:19 33.823704 -116.506198 225 486ft 0kts
28-Apr-18 13:20 33.823704 -116.506198 225 486ft 0kts
28-Apr-18 13:21 33.823704 -116.506198 225 486ft 0kts
28-Apr-18 13:22 33.823704 -116.506198 225 486ft 0kts
28-Apr-18 13:23 33.823779 -116.506105 225 486ft 2kts
28-Apr-18 13:24 33.824223 -116.505802 168 486ft 2kts
28-Apr-18 13:25 33.824429 -116.505954 129 486ft 0kts
28-Apr-18 13:26 33.824429 -116.505954 129 486ft 0kts
28-Apr-18 13:27 33.824429 -116.505954 129 486ft 0kts
28-Apr-18 13:28 33.823543 -116.505137 143 486ft 9kts
28-Apr-18 13:29 33.823006 -116.504557 103 486ft 0kts
28-Apr-18 13:30 33.822489 -116.503288 142 486ft 15kts
28-Apr-18 13:31 33.818520 -116.499061 89 486ft 1kts
28-Apr-18 13:32 33.818520 -116.499061 89 486ft 0kts
28-Apr-18 13:33 33.818520 -116.499061 89 486ft 0kts
28-Apr-18 13:34 33.818990 -116.498239 352 486ft 8kts
28-Apr-18 13:35 33.823273 -116.501974 323 486ft 89kts
28-Apr-18 13:36 33.854992 -116.529405 324 1866ft 152kts
28-Apr-18 13:37 33.895486 -116.566866 322 3294ft 222kts
28-Apr-18 13:38 33.950342 -116.536542 75 5283ft 295kts
28-Apr-18 13:39 33.913326 -116.453150 118 8127ft 309kts
28-Apr-18 13:40 33.881446 -116.355511 111 10397ft 334kts
28-Apr-18 13:41 33.846961 -116.244614 111 12222ft 364kts
28-Apr-18 13:42 33.789097 -116.153551 170 14255ft 354kts
28-Apr-18 13:43 33.714428 -116.202392 256 16087ft 329kts
28-Apr-18 13:44 33.718392 -116.312345 276 17814ft 336kts
28-Apr-18 13:45 33.732879 -116.424210 277 19351ft 343kts
28-Apr-18 13:46 33.745533 -116.518982 280 20530ft 348kts
28-Apr-18 13:47 33.765810 -116.633417 281 21786ft 354kts
28-Apr-18 13:48 33.784707 -116.734345 281 22798ft 359kts
28-Apr-18 13:49 33.806289 -116.851438 281 23721ft 367kts
28-Apr-18 13:50 33.827519 -116.968200 281 24802ft 367kts
28-Apr-18 13:51 33.852339 -117.106551 281 25797ft 373kts
28-Apr-18 13:52 33.868886 -117.228478 278 26551ft 376kts
28-Apr-18 13:53 33.879721 -117.313706 278 26913ft 382kts
28-Apr-18 13:54 33.901572 -117.437571 283 27649ft 383kts
28-Apr-18 13:55 33.922615 -117.562729 279 27992ft 392kts
28-Apr-18 13:56 33.928138 -117.672391 259 28050ft 405kts
28-Apr-18 13:57 33.923253 -117.803982 275 28025ft 415kts
28-Apr-18 13:58 33.925544 -117.931755 271 28021ft 415kts
28-Apr-18 13:59 33.926146 -118.056547 271 28020ft 415kts
28-Apr-18 14:00 33.926866 -118.190723 271 28019ft 415kts
28-Apr-18 14:01 33.927656 -118.328920 271 28045ft 414kts
28-Apr-18 14:02 33.932311 -118.447423 287 28038ft 413kts
28-Apr-18 14:03 34.009485 -118.535263 326 28042ft 424kts
28-Apr-18 14:04 34.109412 -118.604829 323 28016ft 423kts
28-Apr-18 14:05 34.188045 -118.678098 313 27997ft 419kts
28-Apr-18 14:06 34.267531 -118.776687 308 27997ft 417kts
28-Apr-18 14:07 34.348409 -118.876545 313 28023ft 419kts
28-Apr-18 14:08 34.441082 -118.961099 327 28074ft 425kts
28-Apr-18 14:09 34.542835 -119.031170 323 28075ft 422kts
28-Apr-18 14:10 34.641100 -119.108273 323 28074ft 422kts
28-Apr-18 14:11 34.734754 -119.192509 319 28073ft 419kts
28-Apr-18 14:12 34.827095 -119.277164 319 28072ft 419kts
28-Apr-18 14:13 34.920128 -119.362220 319 28070ft 419kts
28-Apr-18 14:14 35.012833 -119.446736 319 28069ft 418kts
28-Apr-18 14:15 35.105385 -119.530617 321 28068ft 418kts
28-Apr-18 14:16 35.199868 -119.609900 321 28069ft 418kts
28-Apr-18 14:17 35.297865 -119.679045 326 28079ft 421kts
28-Apr-18 14:18 35.397586 -119.753009 321 28077ft 418kts
28-Apr-18 14:19 35.491119 -119.833852 320 28077ft 418kts
28-Apr-18 14:20 35.584595 -119.917995 316 28078ft 415kts
28-Apr-18 14:21 35.661949 -120.017678 295 28069ft 403kts
28-Apr-18 14:22 35.694384 -120.147626 294 28066ft 399kts
28-Apr-18 14:23 35.747627 -120.266724 296 28071ft 398kts
28-Apr-18 14:24 35.795808 -120.388005 287 28077ft 394kts
28-Apr-18 14:25 35.829007 -120.515919 286 28067ft 393kts
28-Apr-18 14:26 35.860084 -120.644576 286 28065ft 392kts
28-Apr-18 14:27 35.894337 -120.768540 289 28076ft 394kts
28-Apr-18 14:28 35.935821 -120.893659 290 28075ft 395kts
28-Apr-18 14:29 35.977148 -121.018251 290 28074ft 395kts
28-Apr-18 14:30 36.018629 -121.143144 290 28072ft 395kts
28-Apr-18 14:31 36.060338 -121.268494 290 28120ft 394kts
28-Apr-18 14:32 36.100008 -121.393164 289 28122ft 393kts
28-Apr-18 14:33 36.130960 -121.500440 289 28082ft 373kts
28-Apr-18 14:34 36.164371 -121.610796 291 26275ft 349kts
28-Apr-18 14:35 36.211666 -121.710082 319 23983ft 351kts
28-Apr-18 14:36 36.302545 -121.756474 331 21773ft 351kts
28-Apr-18 14:37 36.384657 -121.812882 320 19622ft 333kts
28-Apr-18 14:38 36.460200 -121.875449 318 17539ft 324kts
28-Apr-18 14:39 36.544564 -121.907993 348 15454ft 338kts
28-Apr-18 14:40 36.634889 -121.919324 345 13525ft 327kts
28-Apr-18 14:41 36.722686 -121.936572 345 11975ft 309kts
28-Apr-18 14:42 36.805876 -121.958774 339 11984ft 307kts
28-Apr-18 14:43 36.889153 -121.987170 339 11984ft 312kts
28-Apr-18 14:44 36.972188 -122.015687 339 11976ft 308kts
28-Apr-18 14:45 37.051955 -122.042603 339 11977ft 293kts
28-Apr-18 14:46 37.123278 -122.065635 340 11979ft 282kts
28-Apr-18 14:47 37.194757 -122.085999 341 11987ft 279kts
28-Apr-18 14:48 37.269058 -122.107069 341 9654ft 278kts
28-Apr-18 14:49 37.342515 -122.130262 341 7023ft 271kts
28-Apr-18 14:50 37.409068 -122.153197 341 5884ft 219kts
28-Apr-18 14:51 37.469185 -122.174196 341 3922ft 227kts
28-Apr-18 14:52 37.528880 -122.195862 341 2221ft 222kts
28-Apr-18 14:53 37.583724 -122.216505 342 1982ft 208kts
28-Apr-18 14:54 37.639436 -122.236601 342 2002ft 210kts
28-Apr-18 14:55 37.691961 -122.226033 64 2020ft 214kts
28-Apr-18 14:56 37.666276 -122.176726 163 1980ft 205kts
28-Apr-18 14:57 37.611509 -122.153817 163 1984ft 211kts
28-Apr-18 14:58 37.559611 -122.157480 243 2015ft 200kts
28-Apr-18 14:59 37.565088 -122.221989 282 1922ft 183kts
28-Apr-18 15:00 37.576817 -122.274865 293 1351ft 140kts
28-Apr-18 15:01 37.594266 -122.317274 295 795ft 138kts
28-Apr-18 15:02 37.611909 -122.358819 294 65ft 131kts
28-Apr-18 15:03 37.619709 -122.379222 230 21ft 11kts
28-Apr-18 15:04 37.619080 -122.380367 271 21ft 16kts
28-Apr-18 15:05 37.621852 -122.387464 299 21ft 26kts
28-Apr-18 15:06 37.620308 -122.391884 129 21ft 16kts
28-Apr-18 15:07 37.620199 -122.389381 26 21ft 0kts

Navigation Log

Ident Type
Flight plan parsing failed, navigation log unavailable